Time;durP1;ratioP1;P1;durP2;ratioP2;P2;SDS_P1;SDS_P2;PMS_P1;PMS_P2;Temp;Humidity;BMP_temperature;BMP_pressure;BME280_temperature;BME280_humidity;BME280_pressure;Samples;Min_cycle;Max_cycle;Signal;HPM_P1;HPM_P2
2023/03/30 00:02:18;;;;;;;7.00;3.37;;;;;;;12.46;100.00;99455.06;5033024;28;20482;-69
2023/03/30 00:04:46;;;;;;;6.03;3.10;;;;;;;12.45;100.00;99459.63;5041793;28;20476;-68
2023/03/30 00:07:13;;;;;;;6.50;3.00;;;;;;;12.56;100.00;99461.09;5040558;28;20867;-68
2023/03/30 00:09:42;;;;;;;7.03;3.00;;;;;;;12.60;100.00;99449.00;5038101;28;20521;-68
2023/03/30 00:12:09;;;;;;;5.77;2.90;;;;;;;12.49;100.00;99442.16;5040907;28;20485;-68
2023/03/30 00:14:36;;;;;;;3.63;2.67;;;;;;;12.70;100.00;99446.94;5033007;28;20457;-68
2023/03/30 00:17:03;;;;;;;4.93;2.93;;;;;;;12.63;100.00;99444.13;5042671;28;20541;-68
2023/03/30 00:19:29;;;;;;;7.37;2.83;;;;;;;12.71;100.00;99439.75;5042193;28;20459;-68
2023/03/30 00:21:57;;;;;;;4.83;2.80;;;;;;;12.55;100.00;99432.59;5032049;28;20482;-68
2023/03/30 00:24:24;;;;;;;5.03;2.63;;;;;;;12.70;100.00;99430.03;5043755;28;20455;-69
2023/03/30 00:26:51;;;;;;;3.70;2.07;;;;;;;12.80;100.00;99438.69;5044092;28;20488;-68
2023/03/30 00:29:17;;;;;;;4.57;2.47;;;;;;;12.59;100.00;99433.94;5035531;28;20449;-69
2023/03/30 00:31:44;;;;;;;4.80;2.40;;;;;;;12.71;100.00;99429.84;5040089;28;20465;-69
2023/03/30 00:34:11;;;;;;;4.67;3.43;;;;;;;12.82;100.00;99428.63;5041184;28;20473;-68
2023/03/30 00:36:37;;;;;;;3.40;2.90;;;;;;;12.91;100.00;99422.19;5039926;28;20512;-69
2023/03/30 00:39:07;;;;;;;4.27;3.03;;;;;;;12.77;100.00;99426.44;5041599;28;20450;-68
2023/03/30 00:41:34;;;;;;;7.40;2.60;;;;;;;12.91;100.00;99416.00;5039831;28;20481;-68
2023/03/30 00:44:02;;;;;;;3.53;2.50;;;;;;;12.80;100.00;99401.97;5038183;28;21205;-68
2023/03/30 00:46:29;;;;;;;4.33;3.00;;;;;;;12.91;100.00;99399.91;5039153;28;20478;-68
2023/03/30 00:48:57;;;;;;;5.63;3.00;;;;;;;12.92;100.00;99404.28;5042019;28;20521;-69
2023/03/30 00:51:25;;;;;;;3.43;2.33;;;;;;;12.85;100.00;99404.13;5039479;28;20473;-69
2023/03/30 00:53:55;;;;;;;6.23;3.30;;;;;;;12.91;100.00;99391.84;5040083;28;20450;-69
2023/03/30 00:56:27;;;;;;;7.80;2.70;;;;;;;13.02;100.00;99394.16;5039654;28;20492;-70
2023/03/30 00:58:54;;;;;;;3.27;2.10;;;;;;;12.80;100.00;99393.91;5040242;28;20514;-68
2023/03/30 01:01:27;;;;;;;6.40;2.83;;;;;;;12.86;100.00;99389.69;5035696;28;20589;-68
2023/03/30 01:03:56;;;;;;;4.50;2.50;;;;;;;12.94;100.00;99380.78;5030950;28;20503;-67
2023/03/30 01:06:30;;;;;;;4.63;2.73;;;;;;;12.94;100.00;99378.09;5041228;28;20871;-67
2023/03/30 01:08:57;;;;;;;4.00;2.13;;;;;;;12.85;100.00;99371.94;5031777;28;20531;-67
2023/03/30 01:11:26;;;;;;;8.93;2.90;;;;;;;12.99;100.00;99367.66;5038106;28;20496;-67
2023/03/30 01:13:57;;;;;;;5.60;3.30;;;;;;;13.14;100.00;99359.66;5051713;28;20493;-68
2023/03/30 01:16:28;;;;;;;4.30;2.73;;;;;;;13.11;100.00;99358.19;5042659;28;20491;-68
2023/03/30 01:19:00;;;;;;;3.70;1.97;;;;;;;12.95;100.00;99364.50;5038586;28;20535;-67
2023/03/30 01:21:47;;;;;;;2.73;2.00;;;;;;;13.30;100.00;99366.78;5039073;28;20477;-68
2023/03/30 01:24:41;;;;;;;3.93;2.77;;;;;;;13.21;100.00;99354.41;5041059;28;20466;-68
2023/03/30 01:27:23;;;;;;;5.67;2.53;;;;;;;13.10;100.00;99348.44;5039419;28;20497;-67
2023/03/30 01:30:11;;;;;;;2.40;2.17;;;;;;;13.14;100.00;99354.28;5032246;28;20455;-68
2023/03/30 01:32:50;;;;;;;4.60;2.50;;;;;;;13.40;100.00;99340.53;5040406;28;20938;-67
2023/03/30 01:36:13;;;;;;;3.70;2.07;;;;;;;13.24;100.00;99343.31;5040222;28;20484;-68
2023/03/30 01:39:08;;;;;;;3.90;2.40;;;;;;;13.25;100.00;99326.22;4978783;28;20459;-69
2023/03/30 01:41:37;;;;;;;5.17;2.90;;;;;;;13.31;100.00;99320.97;5039709;28;20536;-68
2023/03/30 01:44:11;;;;;;;3.30;2.10;;;;;;;13.27;100.00;99311.59;5037658;28;20547;-68
2023/03/30 01:46:40;;;;;;;5.67;2.67;;;;;;;13.24;100.00;99313.81;5035457;28;20466;-68
2023/03/30 01:49:11;;;;;;;3.63;2.07;;;;;;;13.42;100.00;99316.19;5038816;28;20526;-67
2023/03/30 01:51:44;;;;;;;10.30;3.00;;;;;;;13.51;100.00;99299.81;5039557;28;20492;-67
2023/03/30 01:54:13;;;;;;;5.70;2.73;;;;;;;13.50;100.00;99284.72;5039181;28;20484;-70
2023/03/30 01:56:42;;;;;;;3.70;2.20;;;;;;;13.37;100.00;99285.34;5036974;28;20497;-69
2023/03/30 01:59:11;;;;;;;2.60;2.17;;;;;;;13.50;100.00;99271.28;5031458;28;20481;-69
2023/03/30 02:01:40;;;;;;;3.50;2.60;;;;;;;13.43;100.00;99269.53;5036834;28;20503;-70
2023/03/30 02:04:08;;;;;;;3.63;2.17;;;;;;;13.37;100.00;99268.41;5037751;28;20481;-70
2023/03/30 02:06:38;;;;;;;5.00;2.40;;;;;;;13.47;100.00;99273.50;5037836;28;20481;-68
2023/03/30 02:09:07;;;;;;;6.43;2.63;;;;;;;13.42;100.00;99276.75;5033068;28;20460;-69
2023/03/30 02:11:36;;;;;;;7.53;2.80;;;;;;;13.46;100.00;99269.16;5041731;28;20482;-70
2023/03/30 02:14:04;;;;;;;6.97;3.70;;;;;;;13.51;100.00;99277.50;5042281;28;20487;-69
2023/03/30 02:16:33;;;;;;;6.30;3.40;;;;;;;13.45;100.00;99278.22;5033038;28;20481;-70
2023/03/30 02:19:01;;;;;;;5.80;3.47;;;;;;;13.52;100.00;99277.34;5044027;28;20469;-69
2023/03/30 02:21:28;;;;;;;5.80;4.13;;;;;;;13.78;100.00;99286.78;5043723;28;20481;-69
2023/03/30 02:23:56;;;;;;;9.37;4.57;;;;;;;13.70;100.00;99282.34;5038258;28;20539;-68
2023/03/30 02:26:22;;;;;;;5.80;4.10;;;;;;;13.66;100.00;99274.81;5032806;28;20477;-69
2023/03/30 02:28:51;;;;;;;6.93;4.10;;;;;;;13.50;100.00;99278.50;5043556;28;20442;-69
2023/03/30 02:31:18;;;;;;;8.90;5.00;;;;;;;13.52;100.00;99280.03;5037430;28;20477;-69
2023/03/30 02:33:57;;;;;;;8.53;4.73;;;;;;;13.63;100.00;99278.72;5037946;28;21054;-69
2023/03/30 02:36:36;;;;;;;6.07;4.63;;;;;;;13.55;100.00;99273.44;5037047;28;20488;-68
2023/03/30 02:39:13;;;;;;;6.47;3.93;;;;;;;13.74;100.00;99282.78;5043152;28;20457;-68
2023/03/30 02:42:01;;;;;;;7.57;4.40;;;;;;;13.85;100.00;99294.94;5042040;28;20508;-69
2023/03/30 02:44:32;;;;;;;5.40;4.07;;;;;;;13.54;100.00;99283.34;5043846;28;20875;-69
2023/03/30 02:47:04;;;;;;;7.53;4.50;;;;;;;13.63;100.00;99276.03;5038663;28;20501;-68
2023/03/30 02:49:46;;;;;;;6.83;4.13;;;;;;;13.78;100.00;99259.91;5051314;28;20501;-67
2023/03/30 02:52:23;;;;;;;10.47;4.63;;;;;;;13.74;100.00;99264.00;5048725;28;20486;-67
2023/03/30 02:54:53;;;;;;;9.17;5.27;;;;;;;13.56;100.00;99257.13;5038686;28;20501;-67
2023/03/30 02:57:28;;;;;;;7.70;4.60;;;;;;;13.68;100.00;99251.28;5041718;28;20481;-67
2023/03/30 03:00:00;;;;;;;9.63;5.17;;;;;;;13.51;100.00;99238.06;5038822;28;20461;-67
2023/03/30 03:02:30;;;;;;;9.10;5.50;;;;;;;13.57;100.00;99247.22;5035351;28;20528;-67
2023/03/30 03:04:57;;;;;;;5.97;3.30;;;;;;;13.58;100.00;99231.97;5040882;28;20486;-67
2023/03/30 03:07:26;;;;;;;5.83;3.90;;;;;;;13.52;100.00;99229.00;5036466;28;20517;-68
2023/03/30 03:09:53;;;;;;;4.57;2.90;;;;;;;13.46;100.00;99228.91;5036202;28;20481;-67
2023/03/30 03:12:20;;;;;;;6.40;2.90;;;;;;;13.65;100.00;99240.94;5032141;28;20481;-67
2023/03/30 03:14:46;;;;;;;8.40;3.10;;;;;;;13.55;100.00;99233.97;5041504;28;20460;-67
2023/03/30 03:17:20;;;;;;;6.30;2.80;;;;;;;13.72;100.00;99239.19;5043530;28;20482;-67
2023/03/30 03:19:47;;;;;;;7.27;3.00;;;;;;;13.52;100.00;99247.78;5042276;28;20476;-68
2023/03/30 03:22:14;;;;;;;4.30;2.27;;;;;;;13.51;100.00;99237.22;5042915;28;20501;-68
2023/03/30 03:24:40;;;;;;;7.33;2.70;;;;;;;13.56;100.00;99234.81;5042393;28;20507;-69
2023/03/30 03:27:07;;;;;;;4.77;2.63;;;;;;;13.55;100.00;99230.47;5042387;28;20474;-68
2023/03/30 03:29:35;;;;;;;5.00;2.47;;;;;;;13.53;100.00;99245.94;5041748;28;20465;-68
2023/03/30 03:32:01;;;;;;;6.20;2.53;;;;;;;13.47;100.00;99220.66;5047657;28;20493;-69
2023/03/30 03:34:30;;;;;;;7.67;2.50;;;;;;;13.59;100.00;99222.88;5056088;28;20514;-69
2023/03/30 03:36:57;;;;;;;4.37;2.60;;;;;;;13.58;100.00;99211.31;5041765;28;20532;-69
2023/03/30 03:39:23;;;;;;;3.70;2.30;;;;;;;13.56;100.00;99206.13;5050437;28;20475;-69
2023/03/30 03:41:50;;;;;;;7.90;3.63;;;;;;;13.69;100.00;99199.25;5038787;28;20486;-69
2023/03/30 03:44:17;;;;;;;8.27;3.07;;;;;;;13.69;100.00;99197.38;5040647;28;20534;-70
2023/03/30 03:46:43;;;;;;;6.13;3.17;;;;;;;13.79;100.00;99185.53;5046678;28;20498;-69
2023/03/30 03:49:10;;;;;;;5.60;2.80;;;;;;;13.50;100.00;99187.22;5037499;28;20486;-70
2023/03/30 03:51:38;;;;;;;5.23;3.10;;;;;;;13.63;100.00;99183.91;5032013;28;20505;-69
2023/03/30 03:54:05;;;;;;;14.23;3.23;;;;;;;13.59;100.00;99187.97;5037021;28;20908;-69
2023/03/30 03:56:32;;;;;;;4.80;2.83;;;;;;;13.56;100.00;99187.31;5038299;28;20559;-69
2023/03/30 03:59:01;;;;;;;8.70;3.20;;;;;;;13.19;100.00;99191.72;5042548;28;20473;-70
2023/03/30 04:01:28;;;;;;;6.53;2.80;;;;;;;13.16;100.00;99193.94;5040395;28;20484;-70
2023/03/30 04:03:55;;;;;;;9.80;3.70;;;;;;;13.17;100.00;99193.72;5038323;28;20450;-70
2023/03/30 04:06:22;;;;;;;8.00;2.87;;;;;;;13.35;100.00;99189.91;5039198;28;20489;-69
2023/03/30 04:08:50;;;;;;;4.33;2.80;;;;;;;13.08;100.00;99184.09;5041860;28;21014;-68
2023/03/30 04:11:16;;;;;;;4.10;3.53;;;;;;;13.31;100.00;99178.69;5044106;28;20580;-70
2023/03/30 04:13:43;;;;;;;4.10;3.20;;;;;;;13.24;100.00;99185.78;5038756;28;21017;-68
2023/03/30 04:16:10;;;;;;;5.00;2.37;;;;;;;13.10;100.00;99184.75;5037784;28;21022;-68
2023/03/30 04:18:37;;;;;;;7.20;3.00;;;;;;;13.18;100.00;99184.69;5042140;28;21978;-67
2023/03/30 04:21:05;;;;;;;4.07;2.57;;;;;;;13.02;100.00;99179.50;5037405;28;20478;-67
2023/03/30 04:23:33;;;;;;;11.87;3.30;;;;;;;13.10;100.00;99186.63;5039901;28;20564;-67
2023/03/30 04:26:01;;;;;;;6.40;2.37;;;;;;;13.29;100.00;99188.75;5036545;28;20488;-68
2023/03/30 04:28:28;;;;;;;5.73;2.73;;;;;;;13.46;100.00;99178.69;5032851;28;20507;-69
2023/03/30 04:30:58;;;;;;;4.67;2.47;;;;;;;13.33;100.00;99178.50;5039794;28;20509;-68
2023/03/30 04:33:27;;;;;;;5.07;2.10;;;;;;;13.09;100.00;99188.47;5033037;28;20451;-69
2023/03/30 04:35:54;;;;;;;5.10;2.40;;;;;;;13.25;100.00;99183.97;5034982;28;21005;-68
2023/03/30 04:38:22;;;;;;;8.50;2.43;;;;;;;13.17;100.00;99179.50;5041416;28;21027;-68
2023/03/30 04:40:48;;;;;;;4.23;2.30;;;;;;;13.20;100.00;99171.09;5036231;28;20484;-68
2023/03/30 04:43:18;;;;;;;5.43;2.67;;;;;;;13.06;100.00;99170.06;5040029;28;20477;-69
2023/03/30 04:45:48;;;;;;;9.70;3.13;;;;;;;12.95;100.00;99176.69;5038553;28;20493;-69
2023/03/30 04:48:15;;;;;;;4.00;2.53;;;;;;;12.71;100.00;99174.25;5039706;28;20490;-68
2023/03/30 04:50:42;;;;;;;5.70;2.80;;;;;;;12.74;100.00;99174.72;5032288;28;20472;-68
2023/03/30 04:53:09;;;;;;;5.30;2.60;;;;;;;12.71;100.00;99168.88;5036037;28;20489;-68
2023/03/30 04:55:36;;;;;;;4.47;2.67;;;;;;;12.82;100.00;99169.25;5036033;28;20469;-68
2023/03/30 04:58:03;;;;;;;3.90;2.40;;;;;;;13.06;100.00;99166.53;5040400;28;20443;-68
2023/03/30 05:00:32;;;;;;;3.47;2.13;;;;;;;13.23;100.00;99164.50;5035466;28;20970;-68
2023/03/30 05:02:58;;;;;;;5.27;2.43;;;;;;;13.24;100.00;99164.31;5035328;28;20474;-68
2023/03/30 05:05:25;;;;;;;5.03;2.10;;;;;;;13.15;100.00;99177.00;5038670;28;20485;-68
2023/03/30 05:07:53;;;;;;;4.33;2.20;;;;;;;13.22;100.00;99170.91;5033107;28;20458;-69
2023/03/30 05:10:20;;;;;;;4.13;2.33;;;;;;;13.63;100.00;99175.84;5033816;28;20528;-66
2023/03/30 05:12:47;;;;;;;6.43;2.40;;;;;;;13.54;100.00;99181.31;5035801;28;20493;-66
2023/03/30 05:15:14;;;;;;;5.67;2.17;;;;;;;13.57;100.00;99161.28;5031733;28;20469;-65
2023/03/30 05:17:42;;;;;;;4.73;1.70;;;;;;;13.68;100.00;99162.66;5030594;28;20485;-65
2023/03/30 05:20:09;;;;;;;5.93;1.97;;;;;;;13.78;100.00;99165.88;5038389;28;20614;-71
2023/03/30 05:22:36;;;;;;;5.63;1.90;;;;;;;13.65;100.00;99161.19;5039162;28;20496;-75
2023/03/30 05:25:04;;;;;;;6.80;2.90;;;;;;;13.68;100.00;99162.66;5038701;28;20450;-75
2023/03/30 05:27:30;;;;;;;7.90;2.50;;;;;;;13.63;100.00;99173.16;5040519;28;20528;-74
2023/03/30 05:29:57;;;;;;;12.97;2.90;;;;;;;13.61;100.00;99183.22;5033158;28;20457;-74
2023/03/30 05:32:24;;;;;;;5.17;2.80;;;;;;;13.69;100.00;99172.38;5047729;28;20523;-75
2023/03/30 05:34:52;;;;;;;5.67;2.70;;;;;;;13.72;100.00;99164.78;5042100;28;20456;-75
2023/03/30 05:37:19;;;;;;;2.87;2.00;;;;;;;13.57;100.00;99158.59;5045221;28;20502;-74
2023/03/30 05:39:46;;;;;;;5.00;1.77;;;;;;;13.82;100.00;99164.50;5033463;28;20458;-74
2023/03/30 05:42:13;;;;;;;6.00;2.13;;;;;;;13.81;100.00;99167.38;5040641;28;20489;-74
2023/03/30 05:44:40;;;;;;;6.93;2.00;;;;;;;13.83;100.00;99149.22;5039961;28;20445;-73
2023/03/30 05:47:06;;;;;;;6.60;2.13;;;;;;;13.99;100.00;99164.28;5039118;28;20488;-72
2023/03/30 05:49:33;;;;;;;6.67;2.33;;;;;;;14.08;100.00;99152.41;5036318;28;20540;-73
2023/03/30 05:52:01;;;;;;;6.70;2.80;;;;;;;14.31;100.00;99147.66;5034311;28;21354;-72
2023/03/30 05:54:28;;;;;;;7.40;2.20;;;;;;;14.04;100.00;99148.41;5038555;28;20445;-72
2023/03/30 05:56:54;;;;;;;3.80;1.93;;;;;;;14.18;100.00;99142.13;5035252;28;20477;-72
2023/03/30 05:59:21;;;;;;;5.33;2.10;;;;;;;13.96;100.00;99149.38;5032143;28;20596;-70
2023/03/30 06:01:48;;;;;;;4.43;1.70;;;;;;;13.87;100.00;99143.28;5039304;28;20481;-70
2023/03/30 06:04:17;;;;;;;5.53;2.33;;;;;;;14.09;100.00;99137.91;5038998;28;20482;-69
2023/03/30 06:06:44;;;;;;;9.50;2.07;;;;;;;14.24;100.00;99132.50;5041835;28;20462;-69
2023/03/30 06:09:12;;;;;;;4.00;1.60;;;;;;;14.11;100.00;99125.13;5040199;28;20461;-70
2023/03/30 06:11:39;;;;;;;7.10;2.13;;;;;;;14.45;100.00;99131.66;5037477;28;20480;-69
2023/03/30 06:14:06;;;;;;;3.13;1.97;;;;;;;14.29;100.00;99124.69;5047898;28;20437;-68
2023/03/30 06:16:33;;;;;;;6.60;1.80;;;;;;;14.30;100.00;99121.81;5038307;28;20481;-71
2023/03/30 06:19:00;;;;;;;7.20;2.17;;;;;;;14.31;100.00;99133.41;5042917;28;20996;-71
2023/03/30 06:21:27;;;;;;;7.83;2.37;;;;;;;14.50;100.00;99130.03;5040356;28;20469;-71
2023/03/30 06:23:53;;;;;;;2.87;1.50;;;;;;;14.58;100.00;99141.69;5042375;28;20539;-72
2023/03/30 06:26:22;;;;;;;3.13;1.73;;;;;;;14.43;100.00;99145.28;5041927;28;21018;-72
2023/03/30 06:28:48;;;;;;;4.23;1.60;;;;;;;14.52;100.00;99142.47;5033585;28;20493;-72
2023/03/30 06:31:15;;;;;;;6.70;2.07;;;;;;;14.73;100.00;99136.28;5037648;28;20503;-72
2023/03/30 06:33:42;;;;;;;3.50;1.70;;;;;;;14.41;100.00;99136.59;5045459;28;20506;-72
2023/03/30 06:36:11;;;;;;;5.67;1.57;;;;;;;14.65;100.00;99135.38;5040676;28;20478;-72
2023/03/30 06:38:40;;;;;;;7.33;2.53;;;;;;;14.67;100.00;99144.09;5036955;28;20508;-73
2023/03/30 06:41:10;;;;;;;5.00;1.80;;;;;;;14.55;100.00;99140.22;5041151;28;20476;-72
2023/03/30 06:43:39;;;;;;;6.20;2.00;;;;;;;14.47;100.00;99149.25;5042074;28;20636;-72
2023/03/30 06:46:06;;;;;;;9.30;2.53;;;;;;;14.43;100.00;99149.84;5044336;28;20535;-72
2023/03/30 06:48:33;;;;;;;6.43;2.20;;;;;;;14.40;100.00;99150.22;5038656;28;20462;-71
2023/03/30 06:50:59;;;;;;;4.40;2.17;;;;;;;14.56;100.00;99155.31;5040590;28;20472;-72
2023/03/30 06:53:27;;;;;;;4.40;1.90;;;;;;;14.74;100.00;99164.81;5044063;28;20468;-71
2023/03/30 06:55:55;;;;;;;5.53;2.07;;;;;;;14.78;100.00;99158.03;5030750;28;20489;-71
2023/03/30 06:58:22;;;;;;;5.23;2.00;;;;;;;14.91;100.00;99158.13;5040161;28;20461;-71
2023/03/30 07:00:51;;;;;;;4.13;1.93;;;;;;;15.00;100.00;99161.53;5038519;28;20473;-71
2023/03/30 07:03:18;;;;;;;3.70;2.67;;;;;;;15.46;100.00;99165.53;5040138;28;20997;-72
2023/03/30 07:05:47;;;;;;;6.73;1.80;;;;;;;15.67;100.00;99160.03;5050103;28;20989;-71
2023/03/30 07:08:14;;;;;;;5.27;2.10;;;;;;;15.54;100.00;99166.19;5040809;28;20462;-71
2023/03/30 07:10:41;;;;;;;4.67;1.77;;;;;;;15.43;100.00;99151.44;5038414;28;21061;-73
2023/03/30 07:13:08;;;;;;;5.40;1.70;;;;;;;15.53;100.00;99158.31;5040482;28;20492;-72
2023/03/30 07:15:34;;;;;;;6.03;1.70;;;;;;;15.74;100.00;99158.19;5030585;28;20509;-72
2023/03/30 07:18:03;;;;;;;3.93;1.60;;;;;;;15.95;100.00;99154.59;5040976;28;20496;-72
2023/03/30 07:20:30;;;;;;;4.70;2.20;;;;;;;15.78;100.00;99153.28;5044282;28;20469;-71
2023/03/30 07:22:57;;;;;;;3.33;1.97;;;;;;;15.36;100.00;99153.28;5038569;28;20509;-71
2023/03/30 07:25:23;;;;;;;3.40;1.80;;;;;;;15.37;100.00;99156.78;5031414;28;20847;-71
2023/03/30 07:27:50;;;;;;;7.77;2.17;;;;;;;15.93;100.00;99147.72;5046522;28;21228;-71
2023/03/30 07:30:18;;;;;;;5.13;1.93;;;;;;;15.76;100.00;99145.41;5046162;28;20557;-72
2023/03/30 07:32:45;;;;;;;8.10;1.90;;;;;;;16.05;100.00;99159.59;5034600;28;20474;-72
2023/03/30 07:35:13;;;;;;;4.93;2.73;;;;;;;16.40;100.00;99148.66;5040218;28;20461;-71
2023/03/30 07:37:39;;;;;;;8.53;2.40;;;;;;;16.66;100.00;99144.31;5042526;28;20493;-71
2023/03/30 07:40:08;;;;;;;9.57;2.50;;;;;;;16.99;100.00;99149.72;5036193;28;20489;-71
2023/03/30 07:42:35;;;;;;;4.03;2.10;;;;;;;18.93;100.00;99163.19;5040505;28;20507;-72
2023/03/30 07:45:02;;;;;;;4.73;2.80;;;;;;;19.26;100.00;99153.94;5040412;28;20453;-72
2023/03/30 07:47:29;;;;;;;6.47;2.37;;;;;;;21.32;100.00;99152.06;5040352;28;20476;-72
2023/03/30 07:49:56;;;;;;;6.47;2.00;;;;;;;19.55;100.00;99162.41;5035364;28;20651;-72
2023/03/30 07:52:24;;;;;;;7.03;2.27;;;;;;;18.85;100.00;99151.81;5036326;28;20508;-71
2023/03/30 07:54:51;;;;;;;8.50;2.27;;;;;;;20.23;100.00;99152.38;5038821;28;20445;-72
2023/03/30 07:57:18;;;;;;;5.03;2.00;;;;;;;20.26;100.00;99147.31;5035884;28;20485;-71
2023/03/30 07:59:44;;;;;;;5.60;2.00;;;;;;;22.48;94.27;99153.88;5039616;28;20484;-71
2023/03/30 08:02:12;;;;;;;9.47;2.33;;;;;;;23.82;85.44;99151.25;5040290;28;20505;-73
2023/03/30 08:04:39;;;;;;;3.47;1.57;;;;;;;21.99;91.65;99148.03;5039462;28;20489;-74
2023/03/30 08:07:05;;;;;;;4.50;2.23;;;;;;;20.60;100.00;99163.91;5036766;28;20482;-74
2023/03/30 08:09:34;;;;;;;4.40;2.00;;;;;;;19.43;100.00;99153.34;5039049;28;20453;-73
2023/03/30 08:12:01;;;;;;;5.60;2.00;;;;;;;20.18;100.00;99152.25;5035855;28;20524;-72
2023/03/30 08:14:28;;;;;;;4.50;1.90;;;;;;;20.25;100.00;99161.13;5037815;28;20442;-72
2023/03/30 08:16:55;;;;;;;6.00;2.40;;;;;;;21.14;98.90;99158.44;5035391;28;20466;-70
2023/03/30 08:19:24;;;;;;;4.53;1.47;;;;;;;19.64;100.00;99162.91;5047666;28;20445;-71
2023/03/30 08:21:51;;;;;;;5.50;2.00;;;;;;;18.47;100.00;99150.84;5037391;28;20485;-70
2023/03/30 08:24:17;;;;;;;4.23;1.90;;;;;;;18.34;100.00;99162.56;5043560;28;20474;-70
2023/03/30 08:26:46;;;;;;;3.93;2.00;;;;;;;17.30;100.00;99164.44;5033336;28;20880;-77
2023/03/30 08:29:12;;;;;;;5.57;2.27;;;;;;;17.12;100.00;99174.03;5038555;28;20464;-75
2023/03/30 08:31:39;;;;;;;5.27;1.90;;;;;;;16.40;100.00;99170.25;5023941;28;20487;-72
2023/03/30 08:34:07;;;;;;;4.13;1.90;;;;;;;16.49;100.00;99184.34;5041649;28;20993;-75
2023/03/30 08:36:34;;;;;;;4.20;1.80;;;;;;;15.72;100.00;99176.44;5035257;28;20622;-74
2023/03/30 08:39:01;;;;;;;3.60;1.73;;;;;;;15.59;100.00;99171.81;5037293;28;20507;-73
2023/03/30 08:41:53;;;;;;;5.20;1.93;;;;;;;15.94;100.00;99193.34;5037213;28;20897;-75
2023/03/30 08:44:28;;;;;;;2.57;1.87;;;;;;;15.90;100.00;99184.03;5035923;28;20477;-77
2023/03/30 08:46:56;;;;;;;6.80;2.00;;;;;;;16.86;100.00;99180.28;5030214;28;20474;-75
2023/03/30 08:49:22;;;;;;;5.10;1.60;;;;;;;16.94;100.00;99174.69;5040103;28;20466;-78
2023/03/30 08:51:50;;;;;;;3.53;1.70;;;;;;;16.36;100.00;99180.59;5038028;28;20469;-72
2023/03/30 08:54:19;;;;;;;3.00;1.90;;;;;;;16.14;100.00;99189.88;5033448;28;21036;-78
2023/03/30 08:56:58;;;;;;;4.60;1.60;;;;;;;15.71;100.00;99190.94;5042016;28;20540;-74
2023/03/30 08:59:29;;;;;;;5.83;1.77;;;;;;;15.78;100.00;99185.63;5044752;28;20464;-73
2023/03/30 09:02:01;;;;;;;4.97;1.70;;;;;;;17.13;100.00;99178.41;5037499;28;20565;-74
2023/03/30 09:04:44;;;;;;;6.20;1.77;;;;;;;17.20;100.00;99170.25;5039445;28;20510;-73
2023/03/30 09:07:16;;;;;;;3.30;1.70;;;;;;;17.88;100.00;99188.00;5038616;28;20503;-70
2023/03/30 09:09:45;;;;;;;4.97;2.10;;;;;;;17.81;100.00;99177.19;5039120;28;20480;-74
2023/03/30 09:12:19;;;;;;;8.53;1.93;;;;;;;17.98;100.00;99172.13;5038207;28;20520;-74
2023/03/30 09:14:49;;;;;;;3.20;1.53;;;;;;;17.43;100.00;99185.19;5027403;28;20473;-74
2023/03/30 09:17:20;;;;;;;3.93;2.03;;;;;;;17.19;100.00;99184.00;5034749;28;20507;-74
2023/03/30 09:19:50;;;;;;;3.33;1.63;;;;;;;16.48;100.00;99197.03;5038941;28;20457;-72
2023/03/30 09:22:18;;;;;;;3.63;2.10;;;;;;;15.91;100.00;99207.22;5034417;28;20501;-73
2023/03/30 09:24:45;;;;;;;4.03;2.00;;;;;;;15.95;100.00;99210.34;5035725;28;20504;-73
2023/03/30 09:27:18;;;;;;;4.27;1.90;;;;;;;15.53;100.00;99214.88;5040244;28;20485;-74
2023/03/30 09:29:47;;;;;;;4.77;1.90;;;;;;;14.79;100.00;99243.09;5038840;28;20446;-71
2023/03/30 09:32:19;;;;;;;6.73;3.10;;;;;;;14.19;100.00;99263.97;5040500;28;20473;-73
2023/03/30 09:34:47;;;;;;;6.10;2.20;;;;;;;13.31;100.00;99271.78;5040466;28;20518;-73
2023/03/30 09:37:17;;;;;;;5.93;2.17;;;;;;;12.87;100.00;99265.28;5031069;28;20863;-72
2023/03/30 09:39:45;;;;;;;4.03;1.90;;;;;;;12.93;100.00;99280.69;5036737;28;20460;-73
2023/03/30 09:42:22;;;;;;;3.97;2.30;;;;;;;12.64;100.00;99289.44;5040963;28;20491;-73
2023/03/30 09:44:52;;;;;;;4.67;2.60;;;;;;;12.87;100.00;99277.88;5040676;28;20524;-73
2023/03/30 09:47:24;;;;;;;5.80;2.30;;;;;;;12.89;100.00;99262.44;5048215;28;20505;-73
2023/03/30 09:49:56;;;;;;;5.27;1.80;;;;;;;12.85;100.00;99239.69;5048234;28;20530;-72
2023/03/30 09:52:25;;;;;;;4.03;1.70;;;;;;;12.93;100.00;99248.50;5042451;28;20495;-73
2023/03/30 09:54:52;;;;;;;4.30;2.27;;;;;;;13.09;100.00;99243.97;5036394;28;20498;-72
2023/03/30 09:57:31;;;;;;;6.47;2.37;;;;;;;13.28;100.00;99243.47;5044514;28;20504;-73
2023/03/30 10:00:00;;;;;;;8.63;2.60;;;;;;;13.31;100.00;99231.53;5039637;28;20449;-73
2023/03/30 10:02:31;;;;;;;7.40;1.93;;;;;;;13.78;100.00;99246.47;5036642;28;20513;-71
2023/03/30 10:05:01;;;;;;;6.97;2.50;;;;;;;13.58;100.00;99243.53;5037972;28;20568;-74
2023/03/30 10:07:29;;;;;;;13.80;2.57;;;;;;;15.71;100.00;99250.25;5039057;28;20491;-74
2023/03/30 10:09:58;;;;;;;4.73;1.70;;;;;;;15.44;100.00;99254.63;5043249;28;20472;-74
2023/03/30 10:12:26;;;;;;;7.60;2.23;;;;;;;14.92;100.00;99256.69;5030875;28;20493;-75
2023/03/30 10:14:55;;;;;;;9.37;1.70;;;;;;;16.53;100.00;99258.47;5043938;28;20573;-74
2023/03/30 10:17:24;;;;;;;6.40;1.80;;;;;;;17.12;100.00;99262.34;5041188;28;20485;-73
2023/03/30 10:19:53;;;;;;;7.33;1.63;;;;;;;17.77;100.00;99253.53;5038243;28;20521;-74
2023/03/30 10:22:21;;;;;;;5.97;1.80;;;;;;;18.18;100.00;99261.31;5040649;28;20477;-74
2023/03/30 10:24:53;;;;;;;10.47;1.80;;;;;;;18.68;100.00;99259.81;5044025;28;20535;-74
2023/03/30 10:27:28;;;;;;;7.60;1.80;;;;;;;19.07;100.00;99269.56;5036230;28;20492;-74
2023/03/30 10:29:55;;;;;;;3.73;1.47;;;;;;;19.60;100.00;99275.56;5044459;28;20455;-73
2023/03/30 10:32:25;;;;;;;9.07;2.43;;;;;;;18.96;100.00;99268.41;5037065;28;20481;-73
2023/03/30 10:34:53;;;;;;;6.63;1.80;;;;;;;19.24;100.00;99266.31;5041041;28;20460;-73
2023/03/30 10:37:24;;;;;;;6.80;1.97;;;;;;;19.73;100.00;99264.59;5040574;28;20510;-74
2023/03/30 10:39:51;;;;;;;8.50;1.90;;;;;;;20.66;100.00;99273.56;5039167;28;20499;-75
2023/03/30 10:42:20;;;;;;;10.00;2.57;;;;;;;20.20;100.00;99256.78;5045342;28;20544;-73
2023/03/30 10:44:50;;;;;;;4.20;1.67;;;;;;;20.65;100.00;99252.88;5041998;28;20547;-74
2023/03/30 10:47:33;;;;;;;8.00;2.00;;;;;;;20.58;100.00;99252.94;5037834;28;20593;-75
2023/03/30 10:50:04;;;;;;;4.67;1.97;;;;;;;20.50;100.00;99258.69;5034667;28;20474;-74
2023/03/30 10:52:36;;;;;;;5.07;1.90;;;;;;;18.18;100.00;99244.25;5037434;28;20477;-73
2023/03/30 10:55:07;;;;;;;6.47;2.00;;;;;;;17.69;100.00;99235.66;5041753;28;20441;-74
2023/03/30 10:57:40;;;;;;;5.10;1.73;;;;;;;17.63;100.00;99248.13;5039290;28;20473;-74
2023/03/30 11:00:28;;;;;;;7.53;2.03;;;;;;;16.91;100.00;99258.78;5040128;28;20446;-73
2023/03/30 11:03:00;;;;;;;8.53;2.50;;;;;;;16.66;100.00;99250.41;5040972;28;20481;-72
2023/03/30 11:05:31;;;;;;;7.60;2.10;;;;;;;17.09;100.00;99246.53;5046332;28;20473;-72
2023/03/30 11:08:02;;;;;;;3.67;1.60;;;;;;;17.23;100.00;99252.78;5042880;28;20469;-74
2023/03/30 11:10:31;;;;;;;12.60;2.10;;;;;;;16.70;100.00;99253.50;5037625;28;20491;-73
2023/03/30 11:13:00;;;;;;;2.93;1.77;;;;;;;16.32;100.00;99260.28;5033893;28;20499;-72
2023/03/30 11:15:30;;;;;;;5.63;2.10;;;;;;;16.33;100.00;99263.81;5041869;28;20466;-74
2023/03/30 11:18:04;;;;;;;4.67;1.50;;;;;;;15.63;100.00;99258.47;5042951;28;20453;-74
2023/03/30 11:20:35;;;;;;;5.63;1.80;;;;;;;15.65;100.00;99258.28;5036010;28;20576;-74
2023/03/30 11:23:08;;;;;;;6.83;1.87;;;;;;;16.76;100.00;99260.81;5039256;28;20473;-73
2023/03/30 11:25:41;;;;;;;4.20;1.30;;;;;;;16.80;100.00;99258.53;5038714;28;20486;-72
2023/03/30 11:28:15;;;;;;;4.20;1.60;;;;;;;18.03;100.00;99258.88;5041950;28;20478;-74
2023/03/30 11:30:43;;;;;;;3.23;1.20;;;;;;;17.43;100.00;99258.13;5039442;28;20478;-73
2023/03/30 11:33:25;;;;;;;7.57;1.60;;;;;;;17.06;100.00;99269.38;5041414;28;20485;-74
2023/03/30 11:35:57;;;;;;;3.47;1.00;;;;;;;16.26;100.00;99271.88;5030149;28;20486;-74